Otis, Kansas
Current Conditions -  °F | °C
As of 8:55 PM on Saturday 25 Oct 2014 (Local Time) from KGBD Reporting Station
Clear Clear  
Wind Chill: 21°   Ceiling: Unl
Heat Index: 21°   Visibility: 10mi
Dew Point: 13°   Wind: 12mph
Humidity: 60%   Direction: 160°SSE
Pressure: 29.94"   Gusts: NA
Location:  38.53°N, 99.05°W
Report Text: KGBD 260155Z AUTO 16010KT 10SM CLR 21/13 A2994 RMK AO1
Loading
Personal Weather Stations






























Interactive Weather Map
Tropical Storm Tracking
New forecast layout! Learn more

10-Day Weather Forecast

Advertisements
Track Severe Weather on mobile